createdAt,value
2022-08-26T00:01:56.459Z,4.18
2022-08-26T00:04:25.102Z,3.60
2022-08-26T00:06:53.743Z,6.22
2022-08-26T00:09:22.582Z,6.20
2022-08-26T00:11:53.775Z,3.75
2022-08-26T00:14:21.273Z,5.60
2022-08-26T00:16:48.993Z,7.40
2022-08-26T00:19:20.307Z,3.53
2022-08-26T00:21:49.565Z,3.40
2022-08-26T00:24:18.976Z,6.07
2022-08-26T00:26:46.498Z,8.20
2022-08-26T00:29:13.870Z,6.30
2022-08-26T00:31:42.545Z,6.70
2022-08-26T00:34:12.487Z,5.80
2022-08-26T00:36:40.889Z,4.93
2022-08-26T00:39:08.858Z,4.50
2022-08-26T00:41:39.148Z,6.85
2022-08-26T00:44:06.753Z,6.03
2022-08-26T00:46:46.604Z,6.55
2022-08-26T00:49:25.730Z,3.97
2022-08-26T00:51:58.709Z,4.07
2022-08-26T00:54:33.945Z,5.53
2022-08-26T00:57:16.239Z,4.60
2022-08-26T01:00:06.646Z,4.43
2022-08-26T01:02:33.889Z,5.13
2022-08-26T01:05:04.002Z,4.10
2022-08-26T01:07:32.121Z,5.43
2022-08-26T01:10:06.324Z,7.82
2022-08-26T01:12:40.655Z,7.45
2022-08-26T01:15:10.814Z,5.38
2022-08-26T01:17:40.006Z,5.95
2022-08-26T01:20:21.587Z,7.78
2022-08-26T01:22:58.870Z,5.40
2022-08-26T01:25:33.162Z,4.75
2022-08-26T01:28:05.849Z,4.70
2022-08-26T01:30:34.433Z,4.95
2022-08-26T01:33:08.230Z,7.38
2022-08-26T01:35:36.238Z,11.10
2022-08-26T01:38:03.992Z,6.88
2022-08-26T01:40:35.603Z,4.80
2022-08-26T01:43:04.020Z,5.90
2022-08-26T01:45:33.961Z,9.48
2022-08-26T01:48:04.755Z,9.93
2022-08-26T01:50:35.376Z,8.45
2022-08-26T01:53:10.578Z,6.85
2022-08-26T01:55:41.688Z,6.50
2022-08-26T01:58:17.499Z,5.05
2022-08-26T02:00:46.445Z,5.75
2022-08-26T02:03:21.429Z,5.65
2022-08-26T02:06:01.711Z,5.68
2022-08-26T02:08:44.138Z,9.90
2022-08-26T02:11:11.730Z,8.35
2022-08-26T02:13:45.983Z,7.80
2022-08-26T02:16:18.379Z,5.32
2022-08-26T02:18:46.877Z,8.52
2022-08-26T02:21:13.986Z,11.68
2022-08-26T02:23:42.483Z,9.77
2022-08-26T02:26:20.968Z,8.55
2022-08-26T02:29:00.033Z,7.75
2022-08-26T02:31:27.482Z,6.55
2022-08-26T02:33:54.175Z,7.10
2022-08-26T02:36:24.270Z,9.98
2022-08-26T02:38:55.571Z,13.25
2022-08-26T02:41:23.056Z,8.38
2022-08-26T02:43:49.955Z,11.40
2022-08-26T02:46:27.908Z,7.85
2022-08-26T02:48:57.879Z,9.23
2022-08-26T02:51:24.912Z,8.20
2022-08-26T02:53:51.727Z,9.55
2022-08-26T02:56:18.535Z,8.77
2022-08-26T02:58:45.712Z,8.50
2022-08-26T03:01:29.743Z,7.97
2022-08-26T03:03:57.499Z,6.40
2022-08-26T03:06:24.704Z,6.55
2022-08-26T03:08:52.699Z,12.52
2022-08-26T03:11:20.088Z,8.90
2022-08-26T03:13:48.570Z,13.63
2022-08-26T03:16:15.770Z,9.27
2022-08-26T03:18:42.831Z,7.00
2022-08-26T03:21:17.675Z,14.20
2022-08-26T03:23:45.419Z,7.90
2022-08-26T03:26:15.595Z,8.35
2022-08-26T03:29:01.210Z,12.02
2022-08-26T03:31:29.859Z,7.45
2022-08-26T03:33:59.263Z,11.10
2022-08-26T03:36:27.115Z,9.93
2022-08-26T03:38:54.319Z,9.45
2022-08-26T03:41:21.262Z,9.95
2022-08-26T03:43:50.559Z,7.75
2022-08-26T03:46:20.559Z,11.85
2022-08-26T03:48:48.001Z,7.38
2022-08-26T03:51:19.115Z,8.30
2022-08-26T03:53:48.023Z,7.40
2022-08-26T03:56:15.336Z,8.40
2022-08-26T03:58:44.223Z,11.63
2022-08-26T04:01:12.571Z,8.80
2022-08-26T04:03:57.724Z,14.05
2022-08-26T04:06:37.960Z,9.07
2022-08-26T04:09:11.612Z,12.13
2022-08-26T04:11:39.605Z,9.18
2022-08-26T04:14:20.021Z,8.48
2022-08-26T04:16:48.551Z,11.93
2022-08-26T04:19:17.319Z,10.80
2022-08-26T04:21:45.432Z,14.10
2022-08-26T04:24:15.557Z,11.40
2022-08-26T04:26:43.917Z,10.27
2022-08-26T04:29:18.788Z,8.82
2022-08-26T04:31:48.022Z,8.30
2022-08-26T04:34:16.557Z,14.25
2022-08-26T04:36:44.351Z,12.48
2022-08-26T04:39:14.777Z,6.97
2022-08-26T04:41:41.460Z,9.68
2022-08-26T04:44:08.214Z,8.20
2022-08-26T04:46:39.805Z,8.93
2022-08-26T04:49:11.512Z,10.15
2022-08-26T04:51:38.995Z,11.93
2022-08-26T04:54:07.086Z,10.07
2022-08-26T04:56:38.616Z,10.15
2022-08-26T04:59:16.842Z,8.32
2022-08-26T05:01:49.065Z,7.28
2022-08-26T05:04:18.801Z,8.98
2022-08-26T05:06:48.751Z,12.27
2022-08-26T05:09:18.235Z,14.70
2022-08-26T05:11:45.940Z,10.65
2022-08-26T05:14:20.458Z,10.60
2022-08-26T05:16:47.990Z,11.75
2022-08-26T05:19:17.237Z,13.75
2022-08-26T05:21:47.169Z,9.45
2022-08-26T05:24:15.020Z,12.02
2022-08-26T05:26:42.091Z,9.65
2022-08-26T05:29:12.056Z,12.00
2022-08-26T05:31:38.833Z,10.40
2022-08-26T05:34:05.901Z,12.23
2022-08-26T05:36:35.631Z,8.80
2022-08-26T05:39:06.022Z,10.00
2022-08-26T05:41:38.562Z,10.00
2022-08-26T05:44:09.260Z,8.63
2022-08-26T05:46:37.369Z,5.10
2022-08-26T05:49:06.090Z,6.32
2022-08-26T05:51:46.129Z,8.10
2022-08-26T05:54:14.967Z,7.35
2022-08-26T05:56:52.167Z,7.35
2022-08-26T05:59:21.368Z,6.95
2022-08-26T06:01:52.708Z,9.25
2022-08-26T06:04:20.131Z,8.65
2022-08-26T06:06:47.125Z,6.97
2022-08-26T06:09:13.993Z,7.38
2022-08-26T06:11:44.357Z,9.35
2022-08-26T06:14:11.589Z,9.20
2022-08-26T06:16:41.380Z,5.43
2022-08-26T06:19:11.501Z,9.15
2022-08-26T06:21:41.615Z,7.78
2022-08-26T06:24:31.643Z,8.88
2022-08-26T06:27:03.463Z,4.70
2022-08-26T06:29:34.595Z,7.90
2022-08-26T06:32:05.458Z,10.00
2022-08-26T06:34:34.026Z,10.00
2022-08-26T06:37:06.462Z,7.85
2022-08-26T06:39:33.722Z,10.20
2022-08-26T06:42:00.936Z,9.13
2022-08-26T06:44:29.960Z,8.88
2022-08-26T06:47:00.828Z,8.00
2022-08-26T06:49:27.849Z,11.50
2022-08-26T06:51:58.082Z,10.75
2022-08-26T06:54:31.398Z,12.60
2022-08-26T06:56:58.383Z,7.30
2022-08-26T06:59:25.356Z,10.48
2022-08-26T07:01:52.344Z,12.35
2022-08-26T07:04:21.906Z,8.57
2022-08-26T07:06:52.822Z,7.13
2022-08-26T07:09:22.612Z,9.95
2022-08-26T07:11:51.113Z,11.57
2022-08-26T07:14:21.225Z,8.88
2022-08-26T07:17:13.933Z,9.38
2022-08-26T07:19:42.113Z,6.47
2022-08-26T07:22:14.895Z,9.55
2022-08-26T07:24:43.412Z,11.07
2022-08-26T07:27:15.026Z,6.93
2022-08-26T07:29:43.389Z,8.88
2022-08-26T07:32:13.070Z,14.15
2022-08-26T07:34:41.895Z,10.85
2022-08-26T07:37:09.080Z,5.80
2022-08-26T07:39:36.080Z,7.93
2022-08-26T07:42:07.427Z,7.97
2022-08-26T07:44:36.270Z,6.43
2022-08-26T07:47:03.396Z,6.93
2022-08-26T07:49:38.119Z,9.35
2022-08-26T07:52:05.824Z,11.45
2022-08-26T07:54:32.725Z,6.57
2022-08-26T07:56:59.556Z,11.18
2022-08-26T07:59:26.265Z,8.65
2022-08-26T08:01:53.041Z,12.63
2022-08-26T08:04:25.484Z,9.55
2022-08-26T08:06:54.820Z,8.10
2022-08-26T08:09:22.294Z,10.77
2022-08-26T08:11:49.640Z,6.78
2022-08-26T08:14:18.320Z,5.65
2022-08-26T08:16:51.174Z,6.97
2022-08-26T08:19:21.477Z,5.82
2022-08-26T08:21:48.818Z,8.63
2022-08-26T08:24:16.164Z,4.75
2022-08-26T08:26:42.826Z,6.43
2022-08-26T08:29:09.564Z,7.25
2022-08-26T08:34:29.046Z,7.22
2022-08-26T08:36:57.034Z,6.47
2022-08-26T08:39:25.358Z,7.93
2022-08-26T08:42:23.652Z,7.85
2022-08-26T08:44:53.093Z,6.35
2022-08-26T08:47:39.119Z,9.00
2022-08-26T08:50:24.652Z,9.73
2022-08-26T08:53:08.883Z,12.80
2022-08-26T08:56:24.710Z,13.13
2022-08-26T08:59:15.623Z,10.43
2022-08-26T09:01:52.417Z,9.60
2022-08-26T09:04:48.108Z,8.85
2022-08-26T09:07:23.473Z,13.02
2022-08-26T09:10:17.801Z,9.43
2022-08-26T09:12:47.540Z,13.43
2022-08-26T09:15:31.395Z,10.00
2022-08-26T09:18:25.094Z,9.60
2022-08-26T09:21:08.625Z,9.20
2022-08-26T09:23:41.712Z,9.25
2022-08-26T09:26:30.573Z,10.50
2022-08-26T09:29:02.285Z,6.18
2022-08-26T09:31:39.013Z,6.78
2022-08-26T09:34:25.483Z,8.85
2022-08-26T09:36:58.889Z,9.23
2022-08-26T09:39:28.269Z,4.78
2022-08-26T09:42:22.224Z,11.60
2022-08-26T09:45:04.756Z,7.97
2022-08-26T09:47:54.393Z,10.38
2022-08-26T09:50:53.843Z,12.63
2022-08-26T09:53:36.514Z,8.73
2022-08-26T09:56:34.411Z,8.07
2022-08-26T09:59:02.808Z,10.68
2022-08-26T10:01:41.644Z,10.95
2022-08-26T10:04:25.191Z,14.05
2022-08-26T10:07:07.190Z,8.40
2022-08-26T10:09:42.937Z,8.75
2022-08-26T10:12:14.719Z,7.82
2022-08-26T10:14:50.235Z,11.50
2022-08-26T10:17:23.303Z,11.05
2022-08-26T10:20:00.004Z,14.27
2022-08-26T10:23:06.615Z,7.88
2022-08-26T10:25:49.230Z,9.30
2022-08-26T10:28:32.401Z,7.55
2022-08-26T10:31:27.841Z,8.27
2022-08-26T10:34:00.231Z,10.25
2022-08-26T10:39:58.761Z,6.93
2022-08-26T10:43:10.430Z,6.30
2022-08-26T10:45:47.953Z,6.85
2022-08-26T10:49:03.360Z,10.68
2022-08-26T10:51:38.577Z,7.05
2022-08-26T10:54:25.961Z,9.23
2022-08-26T10:56:56.800Z,10.95
2022-08-26T11:00:00.370Z,7.13
2022-08-26T11:02:47.425Z,10.57
2022-08-26T11:05:22.605Z,11.35
2022-08-26T11:07:54.828Z,9.15
2022-08-26T11:10:21.634Z,10.50
2022-08-26T11:12:51.744Z,15.50
2022-08-26T11:15:24.672Z,12.20
2022-08-26T11:17:51.595Z,8.50
2022-08-26T11:20:47.223Z,12.15
2022-08-26T11:23:22.791Z,12.77
2022-08-26T11:25:56.989Z,10.63
2022-08-26T11:28:45.732Z,15.60
2022-08-26T11:31:25.586Z,10.32
2022-08-26T11:34:00.715Z,12.43
2022-08-26T11:36:46.634Z,9.50
2022-08-26T11:39:31.821Z,9.02
2022-08-26T11:42:27.753Z,8.93
2022-08-26T11:44:57.933Z,10.02
2022-08-26T11:47:31.507Z,9.00
2022-08-26T11:50:28.533Z,8.02
2022-08-26T11:53:07.642Z,9.27
2022-08-26T11:55:42.338Z,12.00
2022-08-26T11:58:13.274Z,10.00
2022-08-26T12:00:57.822Z,11.75
2022-08-26T12:03:50.554Z,12.25
2022-08-26T12:06:34.039Z,9.75
2022-08-26T12:09:05.949Z,11.13
2022-08-26T12:11:36.277Z,9.18
2022-08-26T12:14:21.068Z,10.90
2022-08-26T12:16:47.938Z,8.82
2022-08-26T12:19:28.244Z,7.60
2022-08-26T12:22:19.200Z,8.65
2022-08-26T12:25:05.337Z,12.85
2022-08-26T12:27:47.875Z,11.65
2022-08-26T12:30:26.036Z,10.07
2022-08-26T12:33:21.861Z,10.00
2022-08-26T12:35:54.813Z,8.00
2022-08-26T12:38:25.036Z,8.10
2022-08-26T12:40:52.087Z,9.68
2022-08-26T12:43:44.726Z,10.10
2022-08-26T12:46:24.836Z,8.48
2022-08-26T12:48:51.647Z,9.07
2022-08-26T12:51:28.824Z,9.30
2022-08-26T12:53:56.267Z,14.60
2022-08-26T12:56:39.346Z,16.20
2022-08-26T12:59:19.770Z,11.80
2022-08-26T13:01:48.274Z,9.38
2022-08-26T13:04:42.531Z,16.33
2022-08-26T13:07:24.687Z,10.13
2022-08-26T13:09:55.036Z,10.02
2022-08-26T13:12:28.578Z,8.38
2022-08-26T13:14:57.383Z,11.63
2022-08-26T13:17:25.489Z,12.40
2022-08-26T13:19:52.114Z,7.18
2022-08-26T13:22:24.177Z,15.68
2022-08-26T13:24:56.288Z,16.45
2022-08-26T13:27:26.127Z,19.67
2022-08-26T13:29:54.839Z,19.67
2022-08-26T13:32:22.404Z,12.05
2022-08-26T13:34:54.054Z,11.90
2022-08-26T13:37:29.320Z,15.02
2022-08-26T13:40:04.810Z,18.33
2022-08-26T13:42:31.600Z,14.60
2022-08-26T13:44:58.790Z,15.00
2022-08-26T13:47:25.918Z,17.92
2022-08-26T13:49:55.774Z,24.05
2022-08-26T13:52:30.251Z,14.38
2022-08-26T13:54:59.937Z,19.83
2022-08-26T13:57:29.853Z,20.83
2022-08-26T13:59:58.915Z,15.77
2022-08-26T14:02:27.444Z,20.73
2022-08-26T14:04:55.115Z,16.00
2022-08-26T14:07:22.585Z,21.73
2022-08-26T14:09:49.304Z,16.25
2022-08-26T14:12:16.546Z,20.05
2022-08-26T14:14:43.452Z,17.83
2022-08-26T14:17:12.139Z,20.92
2022-08-26T14:19:40.327Z,20.75
2022-08-26T14:22:07.000Z,16.85
2022-08-26T14:24:33.633Z,22.60
2022-08-26T14:27:01.306Z,21.63
2022-08-26T14:29:28.221Z,19.23
2022-08-26T14:31:56.903Z,22.25
2022-08-26T14:34:24.650Z,17.67
2022-08-26T14:36:51.275Z,19.02
2022-08-26T14:39:17.914Z,20.70
2022-08-26T14:41:55.443Z,19.98
2022-08-26T14:44:28.476Z,24.40
2022-08-26T14:46:55.885Z,21.55
2022-08-26T14:49:24.291Z,26.25
2022-08-26T14:51:50.980Z,24.13
2022-08-26T14:54:19.890Z,19.52
2022-08-26T14:56:55.665Z,26.42
2022-08-26T14:59:35.217Z,24.40
2022-08-26T15:02:02.978Z,21.30
2022-08-26T15:04:29.827Z,20.30
2022-08-26T15:06:59.488Z,24.20
2022-08-26T15:09:28.037Z,21.48
2022-08-26T15:11:55.313Z,20.70
2022-08-26T15:14:23.517Z,20.40
2022-08-26T15:16:53.737Z,20.48
2022-08-26T15:19:20.896Z,19.00
2022-08-26T15:21:47.982Z,18.42
2022-08-26T15:24:18.693Z,20.88
2022-08-26T15:26:46.598Z,17.17
2022-08-26T15:29:14.455Z,20.92
2022-08-26T15:31:41.533Z,20.40
2022-08-26T15:34:16.066Z,20.58
2022-08-26T15:36:45.562Z,14.38
2022-08-26T15:39:14.253Z,16.92
2022-08-26T15:41:41.089Z,16.13
2022-08-26T15:44:10.527Z,14.38
2022-08-26T15:46:37.836Z,15.23
2022-08-26T15:49:06.880Z,14.35
2022-08-26T15:51:45.275Z,15.18
2022-08-26T15:54:13.874Z,21.73
2022-08-26T15:56:40.534Z,18.27
2022-08-26T15:59:08.014Z,15.88
2022-08-26T16:01:35.975Z,18.20
2022-08-26T16:04:04.041Z,14.70
2022-08-26T16:06:34.241Z,19.75
2022-08-26T16:09:01.622Z,19.33
2022-08-26T16:11:28.938Z,19.38
2022-08-26T16:13:55.738Z,23.17
2022-08-26T16:16:23.081Z,21.15
2022-08-26T16:18:50.251Z,23.90
2022-08-26T16:21:21.247Z,26.75
2022-08-26T16:23:48.528Z,22.98
2022-08-26T16:26:21.248Z,25.27
2022-08-26T16:28:48.247Z,25.08
2022-08-26T16:31:15.865Z,25.10
2022-08-26T16:33:42.635Z,21.35
2022-08-26T16:36:11.178Z,22.40
2022-08-26T16:38:38.946Z,19.65
2022-08-26T16:41:06.885Z,24.20
2022-08-26T16:43:34.681Z,23.48
2022-08-26T16:46:01.517Z,21.92
2022-08-26T16:48:28.652Z,23.02
2022-08-26T16:50:55.422Z,22.48
2022-08-26T16:53:23.239Z,19.70
2022-08-26T16:55:51.336Z,16.77
2022-08-26T16:58:21.995Z,18.60
2022-08-26T17:00:49.699Z,21.50
2022-08-26T17:03:16.960Z,19.08
2022-08-26T17:05:44.356Z,16.98
2022-08-26T17:08:21.876Z,20.30
2022-08-26T17:10:55.321Z,17.80
2022-08-26T17:13:34.611Z,20.35
2022-08-26T17:16:04.689Z,25.08
2022-08-26T17:18:32.755Z,22.30
2022-08-26T17:21:07.820Z,23.77
2022-08-26T17:23:35.420Z,20.70
2022-08-26T17:26:02.655Z,19.08
2022-08-26T17:28:29.522Z,17.52
2022-08-26T17:30:58.279Z,22.65
2022-08-26T17:33:26.149Z,22.73
2022-08-26T17:35:53.701Z,22.30
2022-08-26T17:38:21.295Z,18.85
2022-08-26T17:40:51.388Z,20.73
2022-08-26T17:43:18.972Z,21.05
2022-08-26T17:45:45.746Z,21.95
2022-08-26T17:48:12.582Z,19.17
2022-08-26T17:50:43.214Z,22.05
2022-08-26T17:53:18.846Z,26.08
2022-08-26T17:55:47.713Z,21.25
2022-08-26T17:58:17.751Z,24.00
2022-08-26T18:00:49.781Z,23.33
2022-08-26T18:03:18.300Z,26.58
2022-08-26T18:05:50.696Z,25.25
2022-08-26T18:08:17.551Z,22.55
2022-08-26T18:10:44.784Z,25.92
2022-08-26T18:13:12.257Z,24.85
2022-08-26T18:15:40.465Z,18.17
2022-08-26T18:18:07.694Z,23.10
2022-08-26T18:20:34.986Z,20.98
2022-08-26T18:23:01.652Z,19.80
2022-08-26T18:25:28.449Z,20.38
2022-08-26T18:27:55.189Z,18.00
2022-08-26T18:30:22.544Z,18.17
2022-08-26T18:32:51.320Z,20.85
2022-08-26T18:35:18.985Z,20.17
2022-08-26T18:37:46.137Z,17.27
2022-08-26T18:40:14.481Z,16.48
2022-08-26T18:42:41.488Z,22.48
2022-08-26T18:45:10.049Z,21.17
2022-08-26T18:47:43.242Z,20.38
2022-08-26T18:50:10.965Z,18.73
2022-08-26T18:52:38.333Z,17.65
2022-08-26T18:55:05.953Z,16.80
2022-08-26T18:57:32.620Z,19.67
2022-08-26T18:59:59.325Z,18.90
2022-08-26T19:02:26.193Z,19.98
2022-08-26T19:04:52.957Z,19.58
2022-08-26T19:07:20.489Z,16.83
2022-08-26T19:09:47.297Z,18.10
2022-08-26T19:12:20.662Z,14.65
2022-08-26T19:14:47.415Z,23.13
2022-08-26T19:17:14.300Z,15.38
2022-08-26T19:19:41.003Z,17.27
2022-08-26T19:22:07.724Z,21.65
2022-08-26T19:24:34.691Z,17.08
2022-08-26T19:27:03.167Z,19.08
2022-08-26T19:29:35.532Z,16.15
2022-08-26T19:32:03.860Z,15.23
2022-08-26T19:34:31.159Z,18.48
2022-08-26T19:36:58.287Z,17.27
2022-08-26T19:39:26.440Z,15.10
2022-08-26T19:41:53.389Z,15.70
2022-08-26T19:44:41.034Z,20.23
2022-08-26T19:47:10.831Z,17.10
2022-08-26T19:49:38.093Z,18.45
2022-08-26T19:52:05.906Z,14.82
2022-08-26T19:54:33.429Z,17.88
2022-08-26T19:57:00.349Z,14.15
2022-08-26T19:59:27.138Z,17.40
2022-08-26T20:02:00.683Z,13.70
2022-08-26T20:04:30.547Z,12.63
2022-08-26T20:07:00.229Z,12.40
2022-08-26T20:09:29.500Z,13.07
2022-08-26T20:11:56.973Z,19.95
2022-08-26T20:14:25.231Z,13.55
2022-08-26T20:16:52.835Z,13.52
2022-08-26T20:19:38.136Z,15.40
2022-08-26T20:22:05.465Z,17.73
2022-08-26T20:24:33.208Z,14.52
2022-08-26T20:27:01.530Z,14.85
2022-08-26T20:29:32.148Z,18.75
2022-08-26T20:31:59.032Z,16.90
2022-08-26T20:34:26.206Z,17.27
2022-08-26T20:36:53.015Z,15.23
2022-08-26T20:39:21.008Z,12.90
2022-08-26T20:41:48.706Z,16.92
2022-08-26T20:44:16.558Z,17.08
2022-08-26T20:46:44.203Z,17.42
2022-08-26T20:49:11.222Z,10.02
2022-08-26T20:51:37.948Z,13.52
2022-08-26T20:54:06.444Z,14.20
2022-08-26T20:56:33.958Z,16.60
2022-08-26T20:59:01.672Z,13.32
2022-08-26T21:01:34.470Z,14.30
2022-08-26T21:04:08.488Z,11.20
2022-08-26T21:06:36.156Z,12.32
2022-08-26T21:09:06.716Z,18.20
2022-08-26T21:11:35.037Z,13.57
2022-08-26T21:14:06.654Z,16.98
2022-08-26T21:16:43.862Z,15.45
2022-08-26T21:19:13.811Z,13.50
2022-08-26T21:21:41.135Z,14.95
2022-08-26T21:24:08.183Z,20.15
2022-08-26T21:26:35.031Z,14.07
2022-08-26T21:29:02.404Z,17.70
2022-08-26T21:31:31.587Z,13.57
2022-08-26T21:33:59.288Z,15.65
2022-08-26T21:36:26.499Z,16.00
2022-08-26T21:38:57.015Z,10.85
2022-08-26T21:41:24.851Z,12.52
2022-08-26T21:43:57.840Z,18.92
2022-08-26T21:46:27.714Z,12.32
2022-08-26T21:48:58.550Z,15.75
2022-08-26T21:51:29.651Z,18.92
2022-08-26T21:53:57.990Z,12.05
2022-08-26T21:56:27.687Z,9.25
2022-08-26T21:58:55.953Z,14.00
2022-08-26T22:01:26.279Z,15.05
2022-08-26T22:03:53.584Z,14.15
2022-08-26T22:06:26.749Z,16.90
2022-08-26T22:08:54.109Z,16.02
2022-08-26T22:11:20.871Z,14.32
2022-08-26T22:13:50.817Z,11.25
2022-08-26T22:16:19.025Z,15.32
2022-08-26T22:18:45.925Z,12.18
2022-08-26T22:21:19.768Z,15.13
2022-08-26T22:23:47.412Z,12.13
2022-08-26T22:26:25.318Z,13.18
2022-08-26T22:28:58.862Z,12.93
2022-08-26T22:31:37.129Z,12.98
2022-08-26T22:34:11.665Z,11.13
2022-08-26T22:36:44.411Z,11.57
2022-08-26T22:39:14.313Z,10.52
2022-08-26T22:41:43.141Z,11.35
2022-08-26T22:44:11.552Z,15.60
2022-08-26T22:46:39.153Z,10.70
2022-08-26T22:49:08.625Z,11.95
2022-08-26T22:51:35.352Z,9.98
2022-08-26T22:54:01.995Z,14.38
2022-08-26T22:56:28.743Z,14.82
2022-08-26T22:58:55.423Z,15.05
2022-08-26T23:01:22.171Z,11.43
2022-08-26T23:03:49.132Z,12.65
2022-08-26T23:06:16.208Z,10.65
2022-08-26T23:08:45.163Z,13.02
2022-08-26T23:11:13.756Z,15.70
2022-08-26T23:13:41.072Z,13.80
2022-08-26T23:16:11.796Z,11.48
2022-08-26T23:18:40.390Z,14.65
2022-08-26T23:21:07.559Z,13.77
2022-08-26T23:23:35.157Z,10.90
2022-08-26T23:26:06.022Z,9.65
2022-08-26T23:28:34.384Z,12.25
2022-08-26T23:31:01.053Z,9.10
2022-08-26T23:33:48.106Z,14.20
2022-08-26T23:36:18.188Z,10.60
2022-08-26T23:38:48.134Z,13.60
2022-08-26T23:41:21.775Z,9.90
2022-08-26T23:43:49.029Z,11.80
2022-08-26T23:46:15.800Z,11.25
2022-08-26T23:48:42.498Z,13.38
2022-08-26T23:51:29.103Z,17.63
2022-08-26T23:53:56.035Z,13.85
2022-08-26T23:56:22.718Z,14.25
2022-08-26T23:58:50.363Z,12.88
